Time;durP1;ratioP1;P1;durP2;ratioP2;P2;SDS_P1;SDS_P2;PMS_P1;PMS_P2;Temp;Humidity;BMP_temperature;BMP_pressure;BME280_temperature;BME280_humidity;BME280_pressure;Samples;Min_cycle;Max_cycle;Signal;HPM_P1;HPM_P2
2022/06/24 00:01:19;;;;;;;0.40;0.40;;;;;;;23.91;nan;94973.75;4959473;28;20289;-69
2022/06/24 00:03:46;;;;;;;0.30;0.30;;;;;;;23.83;nan;94972.00;4971915;28;20339;-68
2022/06/24 00:06:16;;;;;;;0.57;0.57;;;;;;;23.72;nan;94977.00;4966262;28;20200;-66
2022/06/24 00:08:51;;;;;;;0.67;0.67;;;;;;;23.89;nan;94975.97;4965170;28;20199;-67
2022/06/24 00:11:28;;;;;;;0.30;0.30;;;;;;;23.80;nan;94969.97;4938584;28;20279;-68
2022/06/24 00:14:15;;;;;;;0.40;0.40;;;;;;;23.79;nan;94976.47;4952639;28;20286;-65
2022/06/24 00:16:55;;;;;;;0.87;0.87;;;;;;;24.23;nan;94970.16;4942129;28;20210;-67
2022/06/24 00:19:24;;;;;;;1.07;0.97;;;;;;;24.15;nan;94984.47;4950821;29;20215;-70
2022/06/24 00:21:58;;;;;;;3.70;1.30;;;;;;;24.19;nan;94993.38;4952236;28;20204;-68
2022/06/24 00:24:25;;;;;;;0.53;0.50;;;;;;;24.17;nan;94992.16;4965197;28;20289;-68
2022/06/24 00:26:52;;;;;;;0.50;0.50;;;;;;;24.05;nan;94990.25;4959920;28;20203;-69
2022/06/24 00:29:19;;;;;;;1.30;1.20;;;;;;;24.07;nan;94993.38;4971324;28;20191;-67
2022/06/24 00:32:04;;;;;;;0.67;0.67;;;;;;;24.16;nan;95002.06;4964704;28;20187;-69
2022/06/24 00:34:32;;;;;;;2.00;1.03;;;;;;;24.10;nan;95003.44;4963686;28;20205;-69
2022/06/24 00:37:26;;;;;;;0.50;0.50;;;;;;;24.06;nan;94997.19;4947554;28;20199;-67
2022/06/24 00:40:22;;;;;;;0.50;0.50;;;;;;;23.91;nan;95016.59;4967330;28;20207;-64
2022/06/24 00:42:49;;;;;;;0.20;0.20;;;;;;;23.75;nan;95008.47;4952264;28;20212;-69
2022/06/24 00:45:27;;;;;;;0.30;0.30;;;;;;;23.75;nan;95013.03;4966493;28;20191;-65
2022/06/24 00:47:56;;;;;;;0.53;0.47;;;;;;;23.73;nan;95009.91;4962143;28;20799;-66
2022/06/24 00:50:29;;;;;;;0.53;0.53;;;;;;;23.66;nan;95015.03;4952720;28;20227;-65
2022/06/24 00:52:58;;;;;;;0.40;0.40;;;;;;;23.51;nan;95010.34;4962883;28;20228;-66
2022/06/24 00:55:36;;;;;;;0.20;0.20;;;;;;;23.58;nan;94992.63;4952029;28;20607;-71
2022/06/24 00:58:04;;;;;;;0.87;0.87;;;;;;;23.55;nan;95004.00;4962740;28;20580;-70
2022/06/24 01:00:33;;;;;;;0.40;0.40;;;;;;;23.39;nan;95005.00;4964842;28;20271;-66
2022/06/24 01:03:04;;;;;;;0.70;0.60;;;;;;;23.37;nan;95013.34;4944321;28;20695;-69
2022/06/24 01:05:32;;;;;;;0.30;0.30;;;;;;;23.24;nan;95014.41;4959453;28;20227;-71
2022/06/24 01:08:07;;;;;;;0.57;0.57;;;;;;;23.63;nan;95010.34;4938868;28;20671;-68
2022/06/24 01:10:35;;;;;;;0.60;0.60;;;;;;;23.44;nan;95010.13;4951294;28;20207;-71
2022/06/24 01:13:02;;;;;;;0.37;0.37;;;;;;;23.25;nan;95015.97;4944859;28;20222;-69
2022/06/24 01:15:29;;;;;;;0.47;0.40;;;;;;;23.41;nan;95016.13;4958672;28;20573;-67
2022/06/24 01:17:56;;;;;;;0.60;0.60;;;;;;;23.47;nan;95017.47;4951196;28;20200;-68
2022/06/24 01:20:23;;;;;;;0.60;0.60;;;;;;;23.21;nan;95015.06;4951676;28;20274;-70
2022/06/24 01:22:50;;;;;;;0.87;0.60;;;;;;;23.37;nan;95007.22;4951536;28;20234;-67
2022/06/24 01:25:17;;;;;;;0.63;0.63;;;;;;;23.38;nan;95014.09;4951939;28;20195;-71
2022/06/24 01:27:44;;;;;;;0.83;0.70;;;;;;;23.50;nan;95016.81;4952681;28;20582;-75
2022/06/24 01:30:11;;;;;;;0.30;0.30;;;;;;;23.49;nan;95004.53;4962911;28;20211;-70
2022/06/24 01:32:39;;;;;;;0.30;0.30;;;;;;;23.46;nan;95005.22;4951493;28;20277;-71
2022/06/24 01:35:11;;;;;;;1.07;0.63;;;;;;;23.11;nan;95010.94;4941879;28;20313;-69
2022/06/24 01:37:37;;;;;;;0.60;0.60;;;;;;;23.35;nan;95015.56;4952750;28;20683;-70
2022/06/24 01:40:05;;;;;;;0.30;0.30;;;;;;;23.52;nan;95010.00;4946793;28;20352;-68
2022/06/24 01:42:32;;;;;;;0.30;0.30;;;;;;;23.12;nan;94999.13;4943416;28;20733;-67
2022/06/24 01:44:59;;;;;;;0.40;0.40;;;;;;;23.22;nan;95005.16;4952177;28;20260;-70
2022/06/24 01:47:26;;;;;;;0.60;0.60;;;;;;;23.34;nan;95003.28;4951325;28;20627;-72
2022/06/24 01:49:53;;;;;;;0.40;0.40;;;;;;;23.10;nan;94977.28;4953399;28;20659;-67
2022/06/24 01:52:20;;;;;;;0.43;0.43;;;;;;;23.11;nan;94996.78;4971228;28;20195;-67
2022/06/24 01:54:47;;;;;;;0.40;0.40;;;;;;;22.98;nan;95000.53;4974533;28;20299;-68
2022/06/24 01:57:14;;;;;;;0.40;0.40;;;;;;;22.79;nan;95003.69;4960489;28;20206;-71
2022/06/24 01:59:40;;;;;;;0.23;0.23;;;;;;;22.80;nan;94996.47;4966749;28;20188;-70
2022/06/24 02:02:07;;;;;;;1.30;0.77;;;;;;;22.96;nan;94987.50;4954347;28;20226;-66
2022/06/24 02:04:34;;;;;;;0.30;0.30;;;;;;;22.98;nan;94969.25;4955870;28;20224;-68
2022/06/24 02:07:01;;;;;;;1.33;0.60;;;;;;;23.19;nan;94968.38;4960891;28;20200;-69
2022/06/24 02:09:28;;;;;;;0.37;0.37;;;;;;;23.28;nan;94971.75;4957041;29;20742;-69
2022/06/24 02:14:41;;;;;;;0.40;0.40;;;;;;;22.66;nan;94962.03;4947250;28;20211;-68
2022/06/24 02:17:11;;;;;;;1.23;0.90;;;;;;;22.81;nan;94977.44;4960467;28;20624;-70
2022/06/24 02:19:38;;;;;;;0.57;0.57;;;;;;;22.74;nan;94985.22;4949953;28;20223;-69
2022/06/24 02:22:05;;;;;;;0.47;0.30;;;;;;;22.92;nan;94989.25;4945788;29;20196;-67
2022/06/24 02:24:32;;;;;;;0.73;0.40;;;;;;;23.03;nan;94990.41;4954402;28;20290;-71
2022/06/24 02:26:59;;;;;;;24.07;1.50;;;;;;;22.89;nan;94971.22;4954384;28;20199;-67
2022/06/24 02:29:26;;;;;;;0.93;0.93;;;;;;;22.95;nan;94985.97;4954152;28;20191;-67
2022/06/24 02:31:53;;;;;;;1.40;0.83;;;;;;;22.89;nan;94987.25;4954048;28;20666;-69
2022/06/24 02:34:20;;;;;;;0.40;0.40;;;;;;;22.86;nan;95009.28;4953983;28;20722;-68
2022/06/24 02:36:46;;;;;;;0.60;0.60;;;;;;;22.55;nan;95003.63;4946693;28;20188;-66
2022/06/24 02:39:13;;;;;;;0.20;0.20;;;;;;;22.50;nan;95001.09;4961683;28;20676;-69
2022/06/24 02:41:40;;;;;;;0.20;0.20;;;;;;;22.61;nan;95002.28;4953769;28;20250;-67
2022/06/24 02:44:07;;;;;;;0.63;0.43;;;;;;;22.61;nan;95007.63;4953667;28;20200;-71
2022/06/24 02:46:34;;;;;;;0.63;0.63;;;;;;;22.62;nan;95009.22;4965691;28;20207;-68
2022/06/24 02:49:01;;;;;;;2.30;1.10;;;;;;;22.56;nan;94994.50;4955845;28;20207;-68
2022/06/24 02:51:28;;;;;;;0.43;0.40;;;;;;;22.45;nan;94998.63;4953700;28;20196;-66
2022/06/24 02:53:55;;;;;;;0.53;0.53;;;;;;;22.51;nan;94986.66;4955966;28;20657;-68
2022/06/24 02:56:22;;;;;;;0.30;0.30;;;;;;;22.58;nan;94994.94;4964986;28;20204;-68
2022/06/24 02:58:49;;;;;;;0.30;0.30;;;;;;;22.50;nan;94987.75;4953175;28;20215;-70
2022/06/24 03:01:16;;;;;;;0.50;0.50;;;;;;;22.60;nan;94984.72;4953656;28;20254;-68
2022/06/24 03:03:43;;;;;;;0.77;0.70;;;;;;;22.39;nan;94989.25;4953357;28;20227;-67
2022/06/24 03:06:10;;;;;;;0.30;0.30;;;;;;;22.43;nan;94994.72;4953928;28;20200;-69
2022/06/24 03:08:37;;;;;;;0.57;0.57;;;;;;;22.44;nan;94983.75;4965359;28;20199;-69
2022/06/24 03:11:09;;;;;;;0.50;0.50;;;;;;;22.72;nan;94995.44;4954309;28;20255;-70
2022/06/24 03:13:36;;;;;;;0.63;0.63;;;;;;;22.55;nan;94987.59;4953250;28;20203;-67
2022/06/24 03:16:04;;;;;;;0.67;0.67;;;;;;;22.37;nan;94990.72;4953515;28;20207;-68
2022/06/24 03:18:31;;;;;;;0.30;0.30;;;;;;;22.43;nan;95005.41;4953193;28;20200;-68
2022/06/24 03:20:58;;;;;;;0.87;0.80;;;;;;;22.35;nan;94999.06;4950628;28;20188;-69
2022/06/24 03:23:25;;;;;;;0.60;0.60;;;;;;;22.47;nan;94996.44;4942137;28;20200;-66
2022/06/24 03:25:52;;;;;;;0.40;0.40;;;;;;;22.53;nan;95005.81;4953257;28;20212;-70
2022/06/24 03:28:19;;;;;;;1.80;0.97;;;;;;;22.56;nan;94999.84;4953262;28;20191;-70
2022/06/24 03:30:46;;;;;;;0.37;0.37;;;;;;;22.39;nan;95005.28;4953275;28;20282;-66
2022/06/24 03:33:12;;;;;;;1.77;1.60;;;;;;;22.45;nan;95003.97;4957620;28;20231;-67
2022/06/24 03:35:39;;;;;;;1.90;1.43;;;;;;;22.46;nan;95010.09;4972714;28;20215;-68
2022/06/24 03:38:06;;;;;;;1.73;1.60;;;;;;;22.47;nan;95017.00;4951699;28;20583;-69
2022/06/24 03:40:33;;;;;;;1.73;1.23;;;;;;;22.39;nan;95015.97;4942502;29;20211;-67
2022/06/24 03:43:00;;;;;;;0.47;0.43;;;;;;;22.45;nan;95013.88;4938817;28;20184;-68
2022/06/24 03:45:27;;;;;;;0.53;0.53;;;;;;;22.43;nan;95022.22;4962220;28;20879;-70
2022/06/24 03:47:54;;;;;;;0.70;0.70;;;;;;;22.32;nan;95015.69;4954982;28;20993;-70
2022/06/24 03:50:21;;;;;;;0.43;0.30;;;;;;;22.42;nan;94999.31;4947806;28;20211;-70
2022/06/24 03:52:48;;;;;;;0.30;0.30;;;;;;;22.37;nan;95004.81;4952773;28;20196;-70
2022/06/24 03:55:15;;;;;;;0.43;0.43;;;;;;;22.25;nan;95009.31;4965739;28;20581;-70
2022/06/24 03:57:42;;;;;;;0.87;0.47;;;;;;;22.25;nan;95018.13;4966343;28;20719;-66
2022/06/24 04:00:09;;;;;;;0.73;0.73;;;;;;;22.41;nan;95013.75;4952134;28;20248;-70
2022/06/24 04:02:40;;;;;;;0.50;0.50;;;;;;;22.51;nan;95008.03;4967157;28;20200;-69
2022/06/24 04:05:14;;;;;;;0.50;0.50;;;;;;;22.32;nan;95006.91;4963769;28;20239;-69
2022/06/24 04:07:41;;;;;;;0.67;0.60;;;;;;;22.47;nan;95000.97;4971678;28;20687;-69
2022/06/24 04:10:08;;;;;;;0.47;0.47;;;;;;;22.51;nan;94997.34;4960023;28;20203;-69
2022/06/24 04:12:35;;;;;;;1.23;0.93;;;;;;;22.61;nan;95002.28;4948935;28;20243;-68
2022/06/24 04:15:17;;;;;;;2.10;1.90;;;;;;;22.55;nan;95003.63;4940999;29;20713;-67
2022/06/24 04:17:49;;;;;;;1.10;1.07;;;;;;;22.65;nan;94997.88;4954930;28;20203;-68
2022/06/24 04:20:18;;;;;;;0.33;0.33;;;;;;;22.89;nan;95005.97;4961192;28;20705;-67
2022/06/24 04:22:45;;;;;;;0.80;0.77;;;;;;;22.91;nan;95006.44;4951853;28;20196;-67
2022/06/24 04:25:12;;;;;;;1.30;0.67;;;;;;;22.91;nan;95019.78;4949417;28;20295;-66
2022/06/24 04:27:40;;;;;;;1.30;0.43;;;;;;;23.13;nan;95019.41;4936963;28;20204;-66
2022/06/24 04:30:09;;;;;;;0.27;0.27;;;;;;;22.83;nan;95025.97;4950807;28;21226;-66
2022/06/24 04:32:37;;;;;;;0.63;0.63;;;;;;;22.71;nan;95020.59;4950665;29;20664;-68
2022/06/24 04:35:05;;;;;;;0.60;0.60;;;;;;;22.89;nan;95035.38;4964237;28;20255;-67
2022/06/24 04:37:34;;;;;;;0.60;0.60;;;;;;;22.78;nan;95038.75;4950303;28;20200;-65
2022/06/24 04:40:02;;;;;;;0.30;0.30;;;;;;;22.66;nan;95031.47;4937010;28;20192;-70
2022/06/24 04:42:29;;;;;;;8.37;4.30;;;;;;;22.98;nan;95028.03;4949979;28;20192;-71
2022/06/24 04:44:56;;;;;;;3.57;2.30;;;;;;;23.00;nan;95044.53;4950990;28;20227;-69
2022/06/24 04:47:23;;;;;;;1.57;1.00;;;;;;;23.17;nan;95041.66;4950980;28;20246;-69
2022/06/24 04:49:50;;;;;;;1.83;1.17;;;;;;;23.14;nan;95047.69;4951151;28;20238;-69
2022/06/24 04:52:17;;;;;;;2.07;1.90;;;;;;;23.41;nan;95040.97;4951016;28;20672;-75
2022/06/24 04:54:45;;;;;;;0.60;0.60;;;;;;;22.89;nan;95035.38;4951486;28;20235;-69
2022/06/24 04:57:12;;;;;;;0.50;0.50;;;;;;;23.13;nan;95035.44;4952612;28;20212;-69
2022/06/24 04:59:39;;;;;;;0.43;0.43;;;;;;;23.16;nan;95041.25;4945187;28;20723;-67
2022/06/24 05:02:06;;;;;;;0.70;0.70;;;;;;;23.33;nan;95043.75;4945939;28;20600;-71
2022/06/24 05:04:35;;;;;;;0.77;0.63;;;;;;;23.42;nan;95045.22;4938752;29;20695;-69
2022/06/24 05:07:03;;;;;;;0.50;0.50;;;;;;;23.34;nan;95048.00;4951704;29;20219;-74
2022/06/24 05:09:30;;;;;;;1.23;1.07;;;;;;;23.00;nan;95041.06;4951182;28;20267;-70
2022/06/24 05:11:57;;;;;;;0.77;0.77;;;;;;;22.97;nan;95047.84;4951292;28;20199;-70
2022/06/24 05:14:23;;;;;;;0.53;0.53;;;;;;;23.01;nan;95053.31;4951356;28;20302;-71
2022/06/24 05:16:50;;;;;;;0.73;0.70;;;;;;;22.85;nan;95045.13;4951577;28;20195;-71
2022/06/24 05:19:17;;;;;;;0.60;0.60;;;;;;;23.21;nan;95055.16;4951359;28;20207;-68
2022/06/24 05:21:44;;;;;;;0.90;0.90;;;;;;;23.61;nan;95052.72;4952534;28;20196;-66
2022/06/24 05:24:11;;;;;;;3.03;1.43;;;;;;;23.76;nan;95049.34;4952475;28;20208;-69
2022/06/24 05:26:41;;;;;;;1.77;1.67;;;;;;;23.41;nan;95045.56;4954036;29;20207;-71
2022/06/24 05:29:09;;;;;;;2.27;2.07;;;;;;;23.79;nan;95051.38;4952347;28;20549;-71
2022/06/24 05:31:36;;;;;;;0.80;0.77;;;;;;;23.78;nan;95055.94;4951162;28;20207;-69
2022/06/24 05:34:04;;;;;;;0.70;0.70;;;;;;;24.01;nan;95067.03;4951287;28;20222;-70
2022/06/24 05:36:31;;;;;;;1.87;1.67;;;;;;;24.17;nan;95064.44;4951704;28;20204;-71
2022/06/24 05:39:01;;;;;;;0.50;0.50;;;;;;;24.43;nan;95073.69;4953607;28;20718;-70
2022/06/24 05:41:28;;;;;;;1.47;0.90;;;;;;;23.99;nan;95066.56;4960933;28;20698;-69
2022/06/24 05:43:55;;;;;;;1.10;1.03;;;;;;;23.67;nan;95070.09;4951155;28;20588;-71
2022/06/24 05:46:28;;;;;;;0.73;0.73;;;;;;;22.94;nan;95067.22;4962030;28;20222;-70
2022/06/24 05:48:56;;;;;;;0.83;0.67;;;;;;;23.55;nan;95072.75;4954095;28;20199;-67
2022/06/24 05:51:23;;;;;;;1.03;0.97;;;;;;;23.96;nan;95062.63;4951388;29;20200;-71
2022/06/24 05:56:36;;;;;;;0.53;0.53;;;;;;;23.34;nan;95072.81;4940802;28;20239;-69
2022/06/24 05:59:07;;;;;;;0.80;0.80;;;;;;;23.56;nan;95088.47;4947998;28;20646;-70
2022/06/24 06:01:34;;;;;;;1.30;0.93;;;;;;;24.04;nan;95085.09;4950837;28;20659;-72
2022/06/24 06:04:01;;;;;;;0.70;0.70;;;;;;;24.37;nan;95091.09;4950681;28;20266;-70
2022/06/24 06:06:28;;;;;;;0.50;0.47;;;;;;;23.96;nan;95093.97;4951052;28;20210;-69
2022/06/24 06:08:57;;;;;;;0.50;0.50;;;;;;;23.90;nan;95089.97;4950985;28;20207;-70
2022/06/24 06:11:25;;;;;;;0.87;0.87;;;;;;;24.29;nan;95081.28;4950940;28;20192;-70
2022/06/24 06:13:54;;;;;;;0.50;0.50;;;;;;;24.53;nan;95059.81;4950604;28;20239;-69
2022/06/24 06:16:22;;;;;;;0.97;0.77;;;;;;;24.07;nan;95052.28;4950738;28;20253;-68
2022/06/24 06:18:50;;;;;;;1.07;0.97;;;;;;;23.52;nan;95054.72;4939176;28;20209;-66
2022/06/24 06:21:17;;;;;;;1.33;0.70;;;;;;;23.76;nan;95054.72;4953323;28;20211;-68
2022/06/24 06:23:45;;;;;;;0.67;0.67;;;;;;;23.31;nan;95041.41;4959657;28;20690;-65
2022/06/24 06:26:12;;;;;;;0.60;0.60;;;;;;;23.62;nan;95048.91;4950754;28;20202;-71
2022/06/24 06:28:41;;;;;;;1.27;0.50;;;;;;;23.43;nan;95059.38;4950614;28;20687;-71
2022/06/24 06:31:09;;;;;;;0.80;0.80;;;;;;;23.81;nan;95059.88;4964454;28;20199;-66
2022/06/24 06:33:36;;;;;;;1.07;0.90;;;;;;;24.23;nan;95061.22;4952313;28;20195;-72
2022/06/24 06:36:04;;;;;;;1.30;1.10;;;;;;;24.70;nan;95054.22;4954180;28;20295;-71
2022/06/24 06:38:31;;;;;;;0.77;0.53;;;;;;;25.06;nan;95035.28;4960408;28;20655;-70
2022/06/24 06:40:58;;;;;;;1.03;0.70;;;;;;;25.06;nan;95046.03;4961481;28;20206;-71
2022/06/24 06:43:26;;;;;;;0.83;0.83;;;;;;;25.13;nan;95044.66;4954010;28;20694;-68
2022/06/24 06:45:53;;;;;;;0.83;0.70;;;;;;;24.92;nan;95040.28;4953929;28;20667;-67
2022/06/24 06:48:21;;;;;;;0.40;0.40;;;;;;;24.84;nan;95046.56;4954145;28;20290;-69
2022/06/24 06:50:52;;;;;;;0.77;0.77;;;;;;;25.42;nan;95041.63;4954096;28;20202;-70
2022/06/24 06:53:19;;;;;;;0.67;0.67;;;;;;;25.75;nan;95034.75;4954321;28;20595;-72
2022/06/24 06:55:46;;;;;;;0.97;0.90;;;;;;;25.53;nan;95031.94;4950280;28;20258;-74
2022/06/24 06:58:14;;;;;;;0.77;0.77;;;;;;;25.55;nan;95022.38;4944881;28;20199;-70
2022/06/24 07:00:41;;;;;;;0.63;0.63;;;;;;;25.99;nan;95031.88;4953428;28;20196;-70
2022/06/24 07:03:08;;;;;;;0.60;0.60;;;;;;;25.96;nan;95015.69;4953556;28;20683;-68
2022/06/24 07:05:36;;;;;;;1.30;1.13;;;;;;;25.65;nan;95031.84;4966846;28;20239;-68
2022/06/24 07:08:04;;;;;;;0.60;0.60;;;;;;;25.74;nan;95027.06;4961273;28;20191;-68
2022/06/24 07:10:31;;;;;;;0.47;0.47;;;;;;;26.16;nan;95028.06;4959487;28;20192;-72
2022/06/24 07:12:58;;;;;;;0.47;0.47;;;;;;;25.64;nan;95027.56;4953556;28;20667;-66
2022/06/24 07:15:25;;;;;;;0.47;0.47;;;;;;;25.66;nan;95022.63;4953404;28;20230;-72
2022/06/24 07:17:52;;;;;;;7.83;0.87;;;;;;;25.85;nan;95028.88;4953520;28;20227;-69
2022/06/24 07:20:18;;;;;;;0.67;0.67;;;;;;;26.02;nan;95022.38;4953453;28;20250;-71
2022/06/24 07:22:45;;;;;;;0.83;0.80;;;;;;;26.06;nan;95025.91;4953524;28;20204;-73
2022/06/24 07:25:12;;;;;;;0.60;0.60;;;;;;;26.54;nan;94998.56;4953364;28;20200;-72
2022/06/24 07:27:39;;;;;;;0.80;0.80;;;;;;;26.70;nan;95015.44;4953811;28;20199;-70
2022/06/24 07:30:07;;;;;;;1.00;0.90;;;;;;;26.68;nan;95020.38;4953918;28;20200;-64
2022/06/24 07:32:33;;;;;;;0.40;0.40;;;;;;;27.05;nan;95018.03;4966557;28;20207;-70
2022/06/24 07:35:01;;;;;;;0.50;0.50;;;;;;;26.77;nan;95015.56;4953548;28;20236;-69
2022/06/24 07:37:27;;;;;;;0.50;0.50;;;;;;;27.03;nan;95017.59;4964347;28;20211;-72
2022/06/24 07:39:54;;;;;;;0.77;0.70;;;;;;;26.94;nan;95011.66;4955064;28;20202;-69
2022/06/24 07:42:21;;;;;;;0.30;0.30;;;;;;;26.60;nan;95021.34;4952961;28;20204;-70
2022/06/24 07:44:48;;;;;;;0.60;0.57;;;;;;;26.83;nan;95016.84;4952017;28;20210;-72
2022/06/24 07:47:15;;;;;;;0.67;0.67;;;;;;;27.15;nan;95028.22;4952740;28;20191;-72
2022/06/24 07:49:42;;;;;;;0.60;0.60;;;;;;;27.48;nan;95014.97;4953144;28;20198;-68
2022/06/24 07:52:10;;;;;;;0.70;0.70;;;;;;;27.61;nan;95004.84;4952835;28;20196;-74
2022/06/24 07:54:38;;;;;;;0.50;0.50;;;;;;;27.51;nan;95008.09;4952794;28;20216;-69
2022/06/24 07:57:05;;;;;;;1.03;0.57;;;;;;;27.30;nan;95007.72;4952698;28;20192;-70
2022/06/24 07:59:34;;;;;;;0.40;0.40;;;;;;;27.58;nan;95008.22;4952580;28;20262;-69
2022/06/24 08:02:05;;;;;;;0.80;0.80;;;;;;;27.61;nan;95010.22;4952767;28;20216;-78
2022/06/24 08:04:32;;;;;;;0.40;0.40;;;;;;;27.73;nan;95008.09;4965822;28;20612;-71
2022/06/24 08:07:01;;;;;;;0.63;0.60;;;;;;;27.70;nan;95008.06;4964346;28;20203;-68
2022/06/24 08:09:32;;;;;;;0.40;0.40;;;;;;;27.59;nan;94990.94;4953045;28;20196;-67
2022/06/24 08:12:00;;;;;;;1.37;0.40;;;;;;;28.13;nan;95002.19;4952713;28;20200;-72
2022/06/24 08:14:27;;;;;;;0.40;0.40;;;;;;;27.82;nan;95000.56;4951800;28;20703;-66
2022/06/24 08:16:55;;;;;;;0.50;0.50;;;;;;;27.88;nan;95003.72;4952191;28;20291;-73
2022/06/24 08:19:22;;;;;;;0.83;0.83;;;;;;;27.61;nan;94996.75;4954581;28;20196;-74
2022/06/24 08:21:49;;;;;;;0.80;0.80;;;;;;;28.32;nan;95002.06;4963217;28;20206;-69
2022/06/24 08:24:16;;;;;;;0.40;0.40;;;;;;;27.93;nan;95000.75;4952869;28;20750;-69
2022/06/24 08:26:43;;;;;;;0.60;0.57;;;;;;;28.30;nan;94982.81;4964774;28;20207;-73
2022/06/24 08:29:11;;;;;;;1.27;0.77;;;;;;;27.42;nan;95002.97;4951806;28;20200;-73
2022/06/24 08:31:38;;;;;;;0.63;0.63;;;;;;;27.03;nan;95007.63;4965376;28;20258;-71
2022/06/24 08:34:05;;;;;;;0.80;0.80;;;;;;;27.58;nan;94984.00;4952281;28;20192;-66
2022/06/24 08:36:32;;;;;;;1.17;0.83;;;;;;;28.15;nan;94999.91;4952112;28;20204;-71
2022/06/24 08:38:59;;;;;;;1.10;1.00;;;;;;;28.02;nan;95003.94;4952165;28;20199;-68
2022/06/24 08:41:26;;;;;;;1.73;1.27;;;;;;;28.18;nan;95003.78;4953743;28;20204;-69
2022/06/24 08:43:54;;;;;;;0.40;0.40;;;;;;;28.10;nan;94997.53;4970980;28;20191;-67
2022/06/24 08:46:22;;;;;;;1.20;1.10;;;;;;;28.32;nan;95007.44;4956385;28;20203;-68
2022/06/24 08:48:51;;;;;;;0.93;0.90;;;;;;;28.37;nan;95004.44;4951463;28;20200;-69
2022/06/24 08:51:20;;;;;;;1.47;1.00;;;;;;;28.63;nan;94995.56;4952064;28;20204;-71
2022/06/24 08:53:48;;;;;;;0.70;0.70;;;;;;;28.38;nan;94976.34;4952913;28;20290;-70
2022/06/24 08:56:30;;;;;;;0.70;0.70;;;;;;;28.88;nan;95007.41;4953240;28;20231;-73
2022/06/24 08:58:58;;;;;;;0.60;0.50;;;;;;;29.06;nan;95003.00;4951607;28;20192;-70
2022/06/24 09:01:25;;;;;;;0.20;0.20;;;;;;;28.40;nan;95006.41;4951991;28;20227;-69
2022/06/24 09:03:52;;;;;;;0.40;0.40;;;;;;;28.40;nan;95003.72;4951091;28;20235;-72
2022/06/24 09:06:22;;;;;;;0.70;0.70;;;;;;;28.63;nan;94993.63;4951799;29;20578;-67
2022/06/24 09:08:51;;;;;;;1.00;0.90;;;;;;;28.82;nan;94996.19;4965229;28;20639;-67
2022/06/24 09:11:18;;;;;;;0.53;0.53;;;;;;;28.13;nan;94994.09;4938213;28;20219;-69
2022/06/24 09:13:49;;;;;;;0.60;0.60;;;;;;;28.70;nan;94991.00;4951518;28;20203;-71
2022/06/24 09:16:18;;;;;;;0.70;0.70;;;;;;;29.08;nan;94983.72;4964553;28;20577;-65
2022/06/24 09:18:59;;;;;;;0.73;0.73;;;;;;;29.18;nan;94981.16;4951373;28;20215;-68
2022/06/24 09:21:30;;;;;;;0.80;0.80;;;;;;;28.91;nan;94975.09;4970107;28;20191;-68
2022/06/24 09:24:05;;;;;;;0.70;0.70;;;;;;;28.49;nan;94984.56;4958302;28;20246;-71
2022/06/24 09:26:40;;;;;;;0.73;0.40;;;;;;;29.22;nan;94978.50;4965809;28;20199;-71
2022/06/24 09:29:12;;;;;;;0.80;0.80;;;;;;;28.98;nan;94972.47;4951174;28;20203;-69
2022/06/24 09:31:40;;;;;;;4.70;0.67;;;;;;;29.14;nan;94979.59;4964718;28;20287;-74
2022/06/24 09:34:12;;;;;;;0.83;0.77;;;;;;;29.52;nan;94974.56;4951278;28;20192;-71
2022/06/24 09:36:44;;;;;;;1.07;0.93;;;;;;;29.01;nan;94983.66;4951008;28;20584;-73
2022/06/24 09:39:13;;;;;;;0.87;0.87;;;;;;;28.61;nan;94989.75;4951508;28;20196;-73
2022/06/24 09:41:50;;;;;;;0.73;0.50;;;;;;;28.82;nan;94990.78;4951104;28;20211;-66
2022/06/24 09:44:18;;;;;;;0.30;0.30;;;;;;;29.02;nan;94987.91;4962962;28;20209;-66
2022/06/24 09:46:45;;;;;;;0.40;0.40;;;;;;;29.32;nan;94992.13;4965664;28;20728;-71
2022/06/24 09:49:14;;;;;;;0.60;0.60;;;;;;;28.85;nan;94995.44;4951334;28;20196;-72
2022/06/24 09:51:44;;;;;;;0.40;0.40;;;;;;;29.03;nan;94998.34;4951635;28;20602;-71
2022/06/24 09:54:17;;;;;;;0.53;0.53;;;;;;;29.52;nan;94992.66;4951854;28;20621;-70
2022/06/24 09:56:47;;;;;;;0.63;0.63;;;;;;;27.92;nan;94972.19;4951418;28;20747;-69
2022/06/24 10:02:12;;;;;;;0.77;0.77;;;;;;;29.94;nan;94987.63;4957268;28;20238;-68
2022/06/24 10:04:50;;;;;;;0.80;0.70;;;;;;;29.83;nan;94989.47;4939142;28;20642;-73
2022/06/24 10:07:19;;;;;;;0.40;0.40;;;;;;;30.12;nan;94988.53;4951736;28;20210;-70
2022/06/24 10:09:48;;;;;;;0.40;0.40;;;;;;;30.25;nan;94992.47;4954533;28;20327;-71
2022/06/24 10:12:17;;;;;;;0.50;0.50;;;;;;;29.64;nan;94986.97;4954547;28;20694;-69
2022/06/24 10:14:46;;;;;;;0.73;0.70;;;;;;;29.91;nan;94985.66;4941692;28;20203;-71
2022/06/24 10:17:15;;;;;;;0.50;0.50;;;;;;;30.06;nan;94995.41;4953068;28;20200;-71
2022/06/24 10:19:44;;;;;;;0.20;0.20;;;;;;;30.21;nan;94999.78;4954212;28;20204;-67
2022/06/24 10:22:37;;;;;;;0.40;0.40;;;;;;;30.62;nan;95001.16;4954992;28;20195;-68
2022/06/24 10:25:05;;;;;;;0.80;0.80;;;;;;;30.55;nan;94998.44;4942910;28;20212;-72
2022/06/24 10:28:00;;;;;;;0.70;0.70;;;;;;;31.00;nan;95005.22;4954322;28;20668;-75
2022/06/24 10:30:39;;;;;;;0.50;0.50;;;;;;;30.27;nan;95002.94;4944887;28;20259;-69
2022/06/24 10:33:21;;;;;;;0.50;0.50;;;;;;;30.21;nan;94991.66;4954200;28;20203;-69
2022/06/24 10:36:06;;;;;;;0.37;0.37;;;;;;;30.03;nan;94974.56;4954129;28;20220;-70
2022/06/24 10:38:39;;;;;;;0.40;0.40;;;;;;;30.64;nan;94990.75;4941627;28;20203;-73
2022/06/24 10:41:09;;;;;;;0.57;0.57;;;;;;;30.79;nan;95000.47;4954236;28;20207;-71
2022/06/24 10:43:45;;;;;;;1.70;0.50;;;;;;;30.90;nan;94989.72;4940827;28;20196;-72
2022/06/24 10:46:11;;;;;;;0.60;0.37;;;;;;;29.87;nan;94990.28;4966837;28;20214;-68
2022/06/24 10:48:50;;;;;;;0.43;0.43;;;;;;;30.64;nan;94985.34;4958588;28;20212;-67
2022/06/24 10:51:19;;;;;;;0.53;0.53;;;;;;;31.09;nan;94991.31;4954408;28;20204;-73
2022/06/24 10:54:01;;;;;;;0.57;0.57;;;;;;;30.52;nan;94974.88;4953681;28;20214;-67
2022/06/24 10:56:37;;;;;;;0.30;0.30;;;;;;;30.88;nan;94981.97;4953873;28;20231;-70
2022/06/24 10:59:04;;;;;;;0.73;0.73;;;;;;;31.38;nan;94976.69;4967204;28;20245;-71
2022/06/24 11:01:32;;;;;;;0.33;0.33;;;;;;;31.42;nan;94972.06;4953807;28;20195;-66
2022/06/24 11:04:01;;;;;;;0.37;0.37;;;;;;;31.55;nan;94984.06;4954307;28;20239;-75
2022/06/24 11:06:28;;;;;;;17.77;0.80;;;;;;;31.25;nan;94983.59;4965532;28;20292;-75
2022/06/24 11:09:04;;;;;;;0.33;0.33;;;;;;;31.44;nan;94986.00;4967722;28;21959;-64
2022/06/24 11:11:32;;;;;;;0.43;0.43;;;;;;;31.33;nan;94974.34;4965554;28;20664;-73
2022/06/24 11:13:59;;;;;;;0.70;0.70;;;;;;;31.76;nan;94973.22;4953427;28;20203;-73
2022/06/24 11:16:28;;;;;;;0.37;0.30;;;;;;;31.64;nan;94968.97;4959961;28;20218;-69
2022/06/24 11:18:56;;;;;;;1.53;1.30;;;;;;;31.83;nan;94971.28;4973840;28;20208;-70
2022/06/24 11:21:23;;;;;;;0.70;0.70;;;;;;;32.34;nan;94972.78;4955612;28;20200;-68
2022/06/24 11:23:54;;;;;;;0.70;0.70;;;;;;;32.65;nan;94972.69;4944037;28;20200;-68
2022/06/24 11:26:21;;;;;;;0.93;0.90;;;;;;;32.23;nan;94967.38;4952173;28;20250;-73
2022/06/24 11:28:55;;;;;;;0.30;0.30;;;;;;;31.79;nan;94969.72;4953898;28;20204;-72
2022/06/24 11:31:23;;;;;;;0.43;0.43;;;;;;;32.18;nan;94970.50;4954499;28;20334;-68
2022/06/24 11:34:03;;;;;;;0.40;0.40;;;;;;;32.53;nan;94970.44;4954641;28;20277;-70
2022/06/24 11:36:31;;;;;;;0.83;0.83;;;;;;;32.61;nan;94961.09;4954356;28;20239;-70
2022/06/24 11:39:02;;;;;;;0.60;0.60;;;;;;;32.73;nan;94963.38;4953655;28;20287;-64
2022/06/24 11:41:34;;;;;;;0.40;0.40;;;;;;;31.50;nan;94968.19;4954833;28;20243;-66
2022/06/24 11:44:16;;;;;;;0.43;0.43;;;;;;;31.33;nan;94961.56;4954264;28;20216;-68
2022/06/24 11:46:52;;;;;;;0.20;0.20;;;;;;;31.19;nan;94956.13;4965842;28;20210;-71
2022/06/24 11:49:22;;;;;;;0.50;0.50;;;;;;;32.33;nan;94954.97;4940856;28;20274;-70
2022/06/24 11:51:49;;;;;;;0.50;0.50;;;;;;;32.92;nan;94958.63;4953078;28;20568;-70
2022/06/24 11:54:16;;;;;;;0.50;0.50;;;;;;;32.08;nan;94963.16;4971167;28;20191;-67
2022/06/24 11:56:43;;;;;;;0.40;0.40;;;;;;;32.12;nan;94955.78;4972080;28;20211;-68
2022/06/24 11:59:13;;;;;;;0.40;0.40;;;;;;;32.57;nan;94957.59;4954952;28;20207;-68
2022/06/24 12:01:46;;;;;;;0.87;0.87;;;;;;;32.68;nan;94955.63;4952435;28;20215;-75
2022/06/24 12:04:14;;;;;;;0.30;0.30;;;;;;;32.72;nan;94956.38;4952161;28;20216;-71
2022/06/24 12:06:42;;;;;;;0.60;0.60;;;;;;;32.73;nan;94955.22;4952929;28;20702;-72
2022/06/24 12:09:09;;;;;;;0.20;0.20;;;;;;;33.13;nan;94944.94;4966209;28;20663;-69